sensor_id;sensor_type;location;lat;lon;timestamp;P1;durP1;ratioP1;P2;durP2;ratioP2
67193;SDS011;54121;53.508;49.422;2022-12-24T00:01:29;6.28;;;4.57;;
67193;SDS011;54121;53.508;49.422;2022-12-24T00:03:56;5.70;;;4.93;;
67193;SDS011;54121;53.508;49.422;2022-12-24T00:06:22;6.25;;;4.50;;
67193;SDS011;54121;53.508;49.422;2022-12-24T00:08:49;5.43;;;4.10;;
67193;SDS011;54121;53.508;49.422;2022-12-24T00:11:16;6.13;;;4.70;;
67193;SDS011;54121;53.508;49.422;2022-12-24T00:13:43;5.93;;;4.68;;
67193;SDS011;54121;53.508;49.422;2022-12-24T00:16:10;5.47;;;4.90;;
67193;SDS011;54121;53.508;49.422;2022-12-24T00:18:36;5.60;;;4.70;;
67193;SDS011;54121;53.508;49.422;2022-12-24T00:21:03;6.32;;;4.55;;
67193;SDS011;54121;53.508;49.422;2022-12-24T00:23:31;5.82;;;4.75;;
67193;SDS011;54121;53.508;49.422;2022-12-24T00:25:57;5.88;;;4.47;;
67193;SDS011;54121;53.508;49.422;2022-12-24T00:28:24;6.03;;;5.30;;
67193;SDS011;54121;53.508;49.422;2022-12-24T00:30:50;6.88;;;5.30;;
67193;SDS011;54121;53.508;49.422;2022-12-24T00:33:17;6.32;;;5.22;;
67193;SDS011;54121;53.508;49.422;2022-12-24T00:35:43;9.20;;;6.53;;
67193;SDS011;54121;53.508;49.422;2022-12-24T00:38:14;6.78;;;5.15;;
67193;SDS011;54121;53.508;49.422;2022-12-24T00:40:40;7.88;;;5.53;;
67193;SDS011;54121;53.508;49.422;2022-12-24T00:43:07;8.30;;;5.88;;
67193;SDS011;54121;53.508;49.422;2022-12-24T00:45:33;10.27;;;7.07;;
67193;SDS011;54121;53.508;49.422;2022-12-24T00:48:00;12.57;;;8.57;;
67193;SDS011;54121;53.508;49.422;2022-12-24T00:50:26;14.50;;;9.90;;
67193;SDS011;54121;53.508;49.422;2022-12-24T00:52:53;13.57;;;10.05;;
67193;SDS011;54121;53.508;49.422;2022-12-24T00:55:19;12.65;;;9.05;;
67193;SDS011;54121;53.508;49.422;2022-12-24T00:57:46;14.57;;;10.20;;
67193;SDS011;54121;53.508;49.422;2022-12-24T01:00:12;12.43;;;8.75;;
67193;SDS011;54121;53.508;49.422;2022-12-24T01:02:42;12.85;;;9.57;;
67193;SDS011;54121;53.508;49.422;2022-12-24T01:05:09;11.90;;;8.23;;
67193;SDS011;54121;53.508;49.422;2022-12-24T01:07:39;12.93;;;9.95;;
67193;SDS011;54121;53.508;49.422;2022-12-24T01:10:09;11.88;;;9.02;;
67193;SDS011;54121;53.508;49.422;2022-12-24T01:12:36;11.60;;;8.38;;
67193;SDS011;54121;53.508;49.422;2022-12-24T01:15:03;11.20;;;9.55;;
67193;SDS011;54121;53.508;49.422;2022-12-24T01:17:31;9.48;;;7.28;;
67193;SDS011;54121;53.508;49.422;2022-12-24T01:19:58;10.07;;;7.30;;
67193;SDS011;54121;53.508;49.422;2022-12-24T01:22:25;11.80;;;6.57;;
67193;SDS011;54121;53.508;49.422;2022-12-24T01:24:52;10.25;;;6.68;;
67193;SDS011;54121;53.508;49.422;2022-12-24T01:27:19;8.60;;;6.70;;
67193;SDS011;54121;53.508;49.422;2022-12-24T01:29:45;7.68;;;6.07;;
67193;SDS011;54121;53.508;49.422;2022-12-24T01:32:12;8.82;;;7.57;;
67193;SDS011;54121;53.508;49.422;2022-12-24T01:34:38;7.18;;;6.05;;
67193;SDS011;54121;53.508;49.422;2022-12-24T01:37:05;6.07;;;4.30;;
67193;SDS011;54121;53.508;49.422;2022-12-24T01:39:31;7.35;;;5.97;;
67193;SDS011;54121;53.508;49.422;2022-12-24T01:41:58;5.38;;;4.00;;
67193;SDS011;54121;53.508;49.422;2022-12-24T01:44:43;3.65;;;2.67;;
67193;SDS011;54121;53.508;49.422;2022-12-24T01:49:57;6.53;;;4.50;;
67193;SDS011;54121;53.508;49.422;2022-12-24T01:52:33;6.78;;;5.97;;
67193;SDS011;54121;53.508;49.422;2022-12-24T01:55:04;6.45;;;4.82;;
67193;SDS011;54121;53.508;49.422;2022-12-24T01:58:08;5.95;;;5.05;;
67193;SDS011;54121;53.508;49.422;2022-12-24T02:00:28;4.45;;;3.25;;
67193;SDS011;54121;53.508;49.422;2022-12-24T02:02:55;6.45;;;4.13;;
67193;SDS011;54121;53.508;49.422;2022-12-24T02:05:26;6.57;;;5.57;;
67193;SDS011;54121;53.508;49.422;2022-12-24T02:07:57;5.38;;;4.68;;
67193;SDS011;54121;53.508;49.422;2022-12-24T02:10:25;4.60;;;4.15;;
67193;SDS011;54121;53.508;49.422;2022-12-24T02:12:51;5.55;;;3.70;;
67193;SDS011;54121;53.508;49.422;2022-12-24T02:15:18;4.97;;;3.50;;
67193;SDS011;54121;53.508;49.422;2022-12-24T02:17:50;4.57;;;4.10;;
67193;SDS011;54121;53.508;49.422;2022-12-24T02:20:42;5.55;;;4.43;;
67193;SDS011;54121;53.508;49.422;2022-12-24T02:26:37;6.05;;;5.13;;
67193;SDS011;54121;53.508;49.422;2022-12-24T02:31:49;6.32;;;4.78;;
67193;SDS011;54121;53.508;49.422;2022-12-24T02:34:37;5.30;;;4.40;;
67193;SDS011;54121;53.508;49.422;2022-12-24T02:37:27;7.43;;;5.22;;
67193;SDS011;54121;53.508;49.422;2022-12-24T02:40:13;5.95;;;4.50;;
67193;SDS011;54121;53.508;49.422;2022-12-24T02:42:52;6.05;;;4.40;;
67193;SDS011;54121;53.508;49.422;2022-12-24T02:45:32;5.38;;;4.53;;
67193;SDS011;54121;53.508;49.422;2022-12-24T02:48:00;4.28;;;3.65;;
67193;SDS011;54121;53.508;49.422;2022-12-24T02:50:27;5.32;;;4.40;;
67193;SDS011;54121;53.508;49.422;2022-12-24T02:52:54;6.57;;;5.93;;
67193;SDS011;54121;53.508;49.422;2022-12-24T02:58:02;6.88;;;4.15;;
67193;SDS011;54121;53.508;49.422;2022-12-24T03:03:47;5.22;;;4.70;;
67193;SDS011;54121;53.508;49.422;2022-12-24T03:06:31;7.20;;;6.13;;
67193;SDS011;54121;53.508;49.422;2022-12-24T03:11:56;6.68;;;5.55;;
67193;SDS011;54121;53.508;49.422;2022-12-24T03:14:27;7.53;;;6.72;;
67193;SDS011;54121;53.508;49.422;2022-12-24T03:16:55;8.32;;;5.28;;
67193;SDS011;54121;53.508;49.422;2022-12-24T03:19:23;7.40;;;5.80;;
67193;SDS011;54121;53.508;49.422;2022-12-24T03:21:51;8.48;;;7.68;;
67193;SDS011;54121;53.508;49.422;2022-12-24T03:24:21;10.50;;;7.95;;
67193;SDS011;54121;53.508;49.422;2022-12-24T03:26:48;7.82;;;6.63;;
67193;SDS011;54121;53.508;49.422;2022-12-24T03:29:15;10.45;;;7.05;;
67193;SDS011;54121;53.508;49.422;2022-12-24T03:31:43;6.78;;;5.55;;
67193;SDS011;54121;53.508;49.422;2022-12-24T03:34:14;9.55;;;8.60;;
67193;SDS011;54121;53.508;49.422;2022-12-24T03:36:42;6.70;;;5.32;;
67193;SDS011;54121;53.508;49.422;2022-12-24T03:39:09;9.63;;;8.63;;
67193;SDS011;54121;53.508;49.422;2022-12-24T03:41:36;10.10;;;9.10;;
67193;SDS011;54121;53.508;49.422;2022-12-24T03:44:03;10.35;;;8.05;;
67193;SDS011;54121;53.508;49.422;2022-12-24T03:46:30;12.38;;;11.02;;
67193;SDS011;54121;53.508;49.422;2022-12-24T03:48:56;12.93;;;10.60;;
67193;SDS011;54121;53.508;49.422;2022-12-24T03:51:23;10.70;;;8.90;;
67193;SDS011;54121;53.508;49.422;2022-12-24T03:53:51;13.77;;;12.07;;
67193;SDS011;54121;53.508;49.422;2022-12-24T03:56:18;13.88;;;11.85;;
67193;SDS011;54121;53.508;49.422;2022-12-24T03:58:45;13.30;;;9.98;;
67193;SDS011;54121;53.508;49.422;2022-12-24T04:01:13;12.50;;;8.73;;
67193;SDS011;54121;53.508;49.422;2022-12-24T04:03:40;14.43;;;12.85;;
67193;SDS011;54121;53.508;49.422;2022-12-24T04:06:13;13.13;;;11.07;;
67193;SDS011;54121;53.508;49.422;2022-12-24T04:08:42;12.85;;;11.18;;
67193;SDS011;54121;53.508;49.422;2022-12-24T04:11:09;13.48;;;9.40;;
67193;SDS011;54121;53.508;49.422;2022-12-24T04:13:37;12.48;;;9.20;;
67193;SDS011;54121;53.508;49.422;2022-12-24T04:16:05;14.20;;;12.77;;
67193;SDS011;54121;53.508;49.422;2022-12-24T04:18:33;10.82;;;8.88;;
67193;SDS011;54121;53.508;49.422;2022-12-24T04:21:00;10.70;;;8.27;;
67193;SDS011;54121;53.508;49.422;2022-12-24T04:23:29;11.27;;;9.95;;
67193;SDS011;54121;53.508;49.422;2022-12-24T04:25:58;13.25;;;11.95;;
67193;SDS011;54121;53.508;49.422;2022-12-24T04:28:25;11.27;;;9.48;;
67193;SDS011;54121;53.508;49.422;2022-12-24T04:30:51;10.00;;;7.75;;
67193;SDS011;54121;53.508;49.422;2022-12-24T04:33:23;10.00;;;8.68;;
67193;SDS011;54121;53.508;49.422;2022-12-24T04:35:50;12.38;;;9.75;;
67193;SDS011;54121;53.508;49.422;2022-12-24T04:38:16;10.57;;;8.02;;
67193;SDS011;54121;53.508;49.422;2022-12-24T04:40:43;7.75;;;5.78;;
67193;SDS011;54121;53.508;49.422;2022-12-24T04:43:10;9.13;;;7.35;;
67193;SDS011;54121;53.508;49.422;2022-12-24T04:45:36;9.75;;;8.13;;
67193;SDS011;54121;53.508;49.422;2022-12-24T04:48:03;5.70;;;4.65;;
67193;SDS011;54121;53.508;49.422;2022-12-24T04:50:29;8.45;;;7.53;;
67193;SDS011;54121;53.508;49.422;2022-12-24T04:52:56;10.23;;;8.73;;
67193;SDS011;54121;53.508;49.422;2022-12-24T04:55:23;5.82;;;4.28;;
67193;SDS011;54121;53.508;49.422;2022-12-24T04:57:50;7.97;;;7.18;;
67193;SDS011;54121;53.508;49.422;2022-12-24T05:00:17;8.00;;;6.95;;
67193;SDS011;54121;53.508;49.422;2022-12-24T05:02:43;7.95;;;6.55;;
67193;SDS011;54121;53.508;49.422;2022-12-24T05:05:10;5.45;;;4.25;;
67193;SDS011;54121;53.508;49.422;2022-12-24T05:07:36;7.75;;;6.72;;
67193;SDS011;54121;53.508;49.422;2022-12-24T05:10:03;8.10;;;6.68;;
67193;SDS011;54121;53.508;49.422;2022-12-24T05:12:30;9.10;;;7.32;;
67193;SDS011;54121;53.508;49.422;2022-12-24T05:14:56;8.00;;;7.20;;
67193;SDS011;54121;53.508;49.422;2022-12-24T05:17:23;10.52;;;9.20;;
67193;SDS011;54121;53.508;49.422;2022-12-24T05:19:49;9.25;;;8.25;;
67193;SDS011;54121;53.508;49.422;2022-12-24T05:22:16;8.13;;;7.32;;
67193;SDS011;54121;53.508;49.422;2022-12-24T05:25:00;10.20;;;8.27;;
67193;SDS011;54121;53.508;49.422;2022-12-24T05:27:45;11.85;;;10.02;;
67193;SDS011;54121;53.508;49.422;2022-12-24T05:30:12;8.60;;;5.72;;
67193;SDS011;54121;53.508;49.422;2022-12-24T05:32:38;9.57;;;8.48;;
67193;SDS011;54121;53.508;49.422;2022-12-24T05:35:05;9.15;;;8.10;;
67193;SDS011;54121;53.508;49.422;2022-12-24T05:37:31;9.95;;;8.18;;
67193;SDS011;54121;53.508;49.422;2022-12-24T05:39:58;11.10;;;10.02;;
67193;SDS011;54121;53.508;49.422;2022-12-24T05:42:24;9.73;;;8.13;;
67193;SDS011;54121;53.508;49.422;2022-12-24T05:44:51;13.32;;;9.85;;
67193;SDS011;54121;53.508;49.422;2022-12-24T05:47:18;10.85;;;8.88;;
67193;SDS011;54121;53.508;49.422;2022-12-24T05:49:44;12.07;;;10.60;;
67193;SDS011;54121;53.508;49.422;2022-12-24T05:52:11;12.65;;;9.40;;
67193;SDS011;54121;53.508;49.422;2022-12-24T05:54:37;10.60;;;8.63;;
67193;SDS011;54121;53.508;49.422;2022-12-24T05:57:07;9.33;;;7.50;;
67193;SDS011;54121;53.508;49.422;2022-12-24T05:59:33;11.23;;;10.00;;
67193;SDS011;54121;53.508;49.422;2022-12-24T06:02:00;12.43;;;11.13;;
67193;SDS011;54121;53.508;49.422;2022-12-24T06:04:26;11.15;;;9.80;;
67193;SDS011;54121;53.508;49.422;2022-12-24T06:06:53;14.27;;;10.93;;
67193;SDS011;54121;53.508;49.422;2022-12-24T06:09:19;13.13;;;11.07;;
67193;SDS011;54121;53.508;49.422;2022-12-24T06:11:46;15.07;;;10.85;;
67193;SDS011;54121;53.508;49.422;2022-12-24T06:14:12;12.77;;;10.55;;
67193;SDS011;54121;53.508;49.422;2022-12-24T06:16:39;13.27;;;10.85;;
67193;SDS011;54121;53.508;49.422;2022-12-24T06:19:05;12.07;;;10.48;;
67193;SDS011;54121;53.508;49.422;2022-12-24T06:21:32;11.40;;;9.80;;
67193;SDS011;54121;53.508;49.422;2022-12-24T06:23:58;11.48;;;10.02;;
67193;SDS011;54121;53.508;49.422;2022-12-24T06:26:25;10.48;;;8.60;;
67193;SDS011;54121;53.508;49.422;2022-12-24T06:28:51;11.63;;;8.80;;
67193;SDS011;54121;53.508;49.422;2022-12-24T06:31:19;12.48;;;8.55;;
67193;SDS011;54121;53.508;49.422;2022-12-24T06:33:46;10.27;;;7.93;;
67193;SDS011;54121;53.508;49.422;2022-12-24T06:36:17;9.48;;;8.05;;
67193;SDS011;54121;53.508;49.422;2022-12-24T06:38:46;11.32;;;8.10;;
67193;SDS011;54121;53.508;49.422;2022-12-24T06:41:14;10.85;;;9.52;;
67193;SDS011;54121;53.508;49.422;2022-12-24T06:43:45;12.48;;;9.68;;
67193;SDS011;54121;53.508;49.422;2022-12-24T06:46:13;10.40;;;8.63;;
67193;SDS011;54121;53.508;49.422;2022-12-24T06:48:41;12.30;;;9.80;;
67193;SDS011;54121;53.508;49.422;2022-12-24T06:51:10;10.43;;;8.65;;
67193;SDS011;54121;53.508;49.422;2022-12-24T06:53:37;10.60;;;8.32;;
67193;SDS011;54121;53.508;49.422;2022-12-24T06:56:05;11.73;;;8.43;;
67193;SDS011;54121;53.508;49.422;2022-12-24T06:58:36;11.52;;;9.50;;
67193;SDS011;54121;53.508;49.422;2022-12-24T07:01:04;11.43;;;8.98;;
67193;SDS011;54121;53.508;49.422;2022-12-24T07:03:32;10.70;;;9.02;;
67193;SDS011;54121;53.508;49.422;2022-12-24T07:05:59;9.27;;;7.45;;
67193;SDS011;54121;53.508;49.422;2022-12-24T07:08:26;10.68;;;8.73;;
67193;SDS011;54121;53.508;49.422;2022-12-24T07:10:52;7.15;;;5.60;;
67193;SDS011;54121;53.508;49.422;2022-12-24T07:13:19;8.90;;;7.40;;
67193;SDS011;54121;53.508;49.422;2022-12-24T07:15:46;7.97;;;6.20;;
67193;SDS011;54121;53.508;49.422;2022-12-24T07:18:12;8.45;;;5.97;;
67193;SDS011;54121;53.508;49.422;2022-12-24T07:20:41;9.18;;;7.63;;
67193;SDS011;54121;53.508;49.422;2022-12-24T07:23:07;7.57;;;6.43;;
67193;SDS011;54121;53.508;49.422;2022-12-24T07:25:34;8.60;;;7.70;;
67193;SDS011;54121;53.508;49.422;2022-12-24T07:28:00;8.75;;;5.57;;
67193;SDS011;54121;53.508;49.422;2022-12-24T07:30:27;6.93;;;6.22;;
67193;SDS011;54121;53.508;49.422;2022-12-24T07:32:53;8.20;;;7.28;;
67193;SDS011;54121;53.508;49.422;2022-12-24T07:35:20;7.38;;;6.53;;
67193;SDS011;54121;53.508;49.422;2022-12-24T07:37:46;6.43;;;5.32;;
67193;SDS011;54121;53.508;49.422;2022-12-24T07:40:13;9.45;;;7.40;;
67193;SDS011;54121;53.508;49.422;2022-12-24T07:42:39;11.32;;;6.82;;
67193;SDS011;54121;53.508;49.422;2022-12-24T07:45:07;6.85;;;6.15;;
67193;SDS011;54121;53.508;49.422;2022-12-24T07:47:34;7.75;;;6.78;;
67193;SDS011;54121;53.508;49.422;2022-12-24T07:50:01;8.18;;;5.47;;
67193;SDS011;54121;53.508;49.422;2022-12-24T07:52:29;6.45;;;5.80;;
67193;SDS011;54121;53.508;49.422;2022-12-24T07:54:55;6.30;;;5.20;;
67193;SDS011;54121;53.508;49.422;2022-12-24T07:57:22;5.95;;;5.25;;
67193;SDS011;54121;53.508;49.422;2022-12-24T07:59:48;6.50;;;5.43;;
67193;SDS011;54121;53.508;49.422;2022-12-24T08:02:15;7.43;;;5.93;;
67193;SDS011;54121;53.508;49.422;2022-12-24T08:04:41;5.80;;;5.20;;
67193;SDS011;54121;53.508;49.422;2022-12-24T08:07:08;6.47;;;5.82;;
67193;SDS011;54121;53.508;49.422;2022-12-24T08:09:34;6.53;;;5.80;;
67193;SDS011;54121;53.508;49.422;2022-12-24T08:12:03;5.80;;;5.15;;
67193;SDS011;54121;53.508;49.422;2022-12-24T08:14:29;6.18;;;5.57;;
67193;SDS011;54121;53.508;49.422;2022-12-24T08:16:56;6.32;;;5.72;;
67193;SDS011;54121;53.508;49.422;2022-12-24T08:19:23;5.57;;;5.07;;
67193;SDS011;54121;53.508;49.422;2022-12-24T08:21:50;6.75;;;5.32;;
67193;SDS011;54121;53.508;49.422;2022-12-24T08:24:19;5.80;;;5.18;;
67193;SDS011;54121;53.508;49.422;2022-12-24T08:26:46;6.70;;;6.00;;
67193;SDS011;54121;53.508;49.422;2022-12-24T08:29:12;4.28;;;3.92;;
67193;SDS011;54121;53.508;49.422;2022-12-24T08:31:39;4.93;;;4.30;;
67193;SDS011;54121;53.508;49.422;2022-12-24T08:34:06;6.75;;;5.13;;
67193;SDS011;54121;53.508;49.422;2022-12-24T08:36:33;5.03;;;4.20;;
67193;SDS011;54121;53.508;49.422;2022-12-24T08:39:00;6.95;;;5.85;;
67193;SDS011;54121;53.508;49.422;2022-12-24T08:41:31;5.43;;;4.50;;
67193;SDS011;54121;53.508;49.422;2022-12-24T08:43:58;6.07;;;5.20;;
67193;SDS011;54121;53.508;49.422;2022-12-24T08:46:24;7.43;;;4.93;;
67193;SDS011;54121;53.508;49.422;2022-12-24T08:48:51;3.20;;;2.70;;
67193;SDS011;54121;53.508;49.422;2022-12-24T08:51:18;6.25;;;4.68;;
67193;SDS011;54121;53.508;49.422;2022-12-24T08:53:44;6.78;;;5.10;;
67193;SDS011;54121;53.508;49.422;2022-12-24T08:56:11;5.75;;;4.82;;
67193;SDS011;54121;53.508;49.422;2022-12-24T08:58:38;5.40;;;4.72;;
67193;SDS011;54121;53.508;49.422;2022-12-24T09:01:14;5.53;;;4.40;;
67193;SDS011;54121;53.508;49.422;2022-12-24T09:03:42;6.72;;;4.20;;
67193;SDS011;54121;53.508;49.422;2022-12-24T09:06:09;3.97;;;3.58;;
67193;SDS011;54121;53.508;49.422;2022-12-24T09:08:36;4.97;;;3.90;;
67193;SDS011;54121;53.508;49.422;2022-12-24T09:11:04;3.50;;;2.30;;
67193;SDS011;54121;53.508;49.422;2022-12-24T09:13:32;3.50;;;2.80;;
67193;SDS011;54121;53.508;49.422;2022-12-24T09:15:59;4.65;;;2.85;;
67193;SDS011;54121;53.508;49.422;2022-12-24T09:18:25;3.15;;;2.75;;
67193;SDS011;54121;53.508;49.422;2022-12-24T09:20:59;4.35;;;3.65;;
67193;SDS011;54121;53.508;49.422;2022-12-24T09:23:27;2.75;;;2.35;;
67193;SDS011;54121;53.508;49.422;2022-12-24T09:25:54;6.00;;;5.40;;
67193;SDS011;54121;53.508;49.422;2022-12-24T09:28:21;5.28;;;4.15;;
67193;SDS011;54121;53.508;49.422;2022-12-24T09:30:58;5.50;;;5.00;;
67193;SDS011;54121;53.508;49.422;2022-12-24T09:33:27;5.43;;;4.93;;
67193;SDS011;54121;53.508;49.422;2022-12-24T09:35:55;4.90;;;4.22;;
67193;SDS011;54121;53.508;49.422;2022-12-24T09:38:22;5.63;;;4.30;;
67193;SDS011;54121;53.508;49.422;2022-12-24T09:40:49;4.35;;;3.95;;
67193;SDS011;54121;53.508;49.422;2022-12-24T09:43:20;4.80;;;3.95;;
67193;SDS011;54121;53.508;49.422;2022-12-24T09:46:00;6.43;;;4.00;;
67193;SDS011;54121;53.508;49.422;2022-12-24T09:48:37;4.75;;;3.97;;
67193;SDS011;54121;53.508;49.422;2022-12-24T09:51:10;4.93;;;4.53;;
67193;SDS011;54121;53.508;49.422;2022-12-24T09:56:30;4.75;;;4.25;;
67193;SDS011;54121;53.508;49.422;2022-12-24T09:59:03;5.25;;;4.70;;
67193;SDS011;54121;53.508;49.422;2022-12-24T10:01:32;4.53;;;3.90;;
67193;SDS011;54121;53.508;49.422;2022-12-24T10:04:03;4.80;;;3.95;;
67193;SDS011;54121;53.508;49.422;2022-12-24T10:06:45;3.95;;;3.55;;
67193;SDS011;54121;53.508;49.422;2022-12-24T10:14:55;3.78;;;3.35;;
67193;SDS011;54121;53.508;49.422;2022-12-24T10:20:22;4.03;;;3.63;;
67193;SDS011;54121;53.508;49.422;2022-12-24T10:28:17;3.85;;;3.17;;
67193;SDS011;54121;53.508;49.422;2022-12-24T10:33:49;3.22;;;2.65;;
67193;SDS011;54121;53.508;49.422;2022-12-24T10:36:24;4.05;;;3.28;;
67193;SDS011;54121;53.508;49.422;2022-12-24T10:38:55;3.97;;;3.58;;
67193;SDS011;54121;53.508;49.422;2022-12-24T10:41:23;3.45;;;3.15;;
67193;SDS011;54121;53.508;49.422;2022-12-24T10:43:51;3.67;;;3.20;;
67193;SDS011;54121;53.508;49.422;2022-12-24T10:46:21;3.35;;;3.05;;
67193;SDS011;54121;53.508;49.422;2022-12-24T10:49:01;2.75;;;2.55;;
67193;SDS011;54121;53.508;49.422;2022-12-24T10:54:12;4.88;;;2.78;;
67193;SDS011;54121;53.508;49.422;2022-12-24T10:56:42;3.03;;;2.40;;
67193;SDS011;54121;53.508;49.422;2022-12-24T10:59:26;2.78;;;2.58;;
67193;SDS011;54121;53.508;49.422;2022-12-24T11:01:55;2.08;;;1.70;;
67193;SDS011;54121;53.508;49.422;2022-12-24T11:04:26;3.15;;;2.63;;
67193;SDS011;54121;53.508;49.422;2022-12-24T11:09:27;3.22;;;2.88;;
67193;SDS011;54121;53.508;49.422;2022-12-24T11:11:55;3.42;;;3.10;;
67193;SDS011;54121;53.508;49.422;2022-12-24T11:14:24;4.80;;;3.22;;
67193;SDS011;54121;53.508;49.422;2022-12-24T11:16:55;3.75;;;3.20;;
67193;SDS011;54121;53.508;49.422;2022-12-24T11:19:33;3.42;;;2.90;;
67193;SDS011;54121;53.508;49.422;2022-12-24T11:24:33;4.65;;;3.67;;
67193;SDS011;54121;53.508;49.422;2022-12-24T11:30:12;5.15;;;4.22;;
67193;SDS011;54121;53.508;49.422;2022-12-24T11:32:47;4.90;;;3.60;;
67193;SDS011;54121;53.508;49.422;2022-12-24T11:35:26;3.97;;;3.42;;
67193;SDS011;54121;53.508;49.422;2022-12-24T11:40:32;5.07;;;4.32;;
67193;SDS011;54121;53.508;49.422;2022-12-24T11:43:02;4.75;;;3.95;;
67193;SDS011;54121;53.508;49.422;2022-12-24T11:45:30;7.05;;;4.95;;
67193;SDS011;54121;53.508;49.422;2022-12-24T11:47:58;6.90;;;6.05;;
67193;SDS011;54121;53.508;49.422;2022-12-24T11:50:35;7.55;;;6.13;;
67193;SDS011;54121;53.508;49.422;2022-12-24T11:55:34;6.05;;;4.57;;
67193;SDS011;54121;53.508;49.422;2022-12-24T12:01:02;5.72;;;4.30;;
67193;SDS011;54121;53.508;49.422;2022-12-24T12:03:50;4.10;;;3.08;;
67193;SDS011;54121;53.508;49.422;2022-12-24T12:09:13;7.10;;;4.88;;
67193;SDS011;54121;53.508;49.422;2022-12-24T12:11:47;6.82;;;5.70;;
67193;SDS011;54121;53.508;49.422;2022-12-24T12:14:24;6.38;;;4.90;;
67193;SDS011;54121;53.508;49.422;2022-12-24T12:16:57;9.32;;;6.50;;
67193;SDS011;54121;53.508;49.422;2022-12-24T12:19:41;8.77;;;7.88;;
67193;SDS011;54121;53.508;49.422;2022-12-24T12:22:23;7.70;;;6.90;;
67193;SDS011;54121;53.508;49.422;2022-12-24T12:24:59;8.75;;;7.85;;
67193;SDS011;54121;53.508;49.422;2022-12-24T12:27:31;8.50;;;7.60;;
67193;SDS011;54121;53.508;49.422;2022-12-24T12:30:04;9.00;;;8.10;;
67193;SDS011;54121;53.508;49.422;2022-12-24T12:32:38;9.00;;;7.82;;
67193;SDS011;54121;53.508;49.422;2022-12-24T12:38:04;7.18;;;6.22;;
67193;SDS011;54121;53.508;49.422;2022-12-24T12:40:52;8.45;;;6.57;;
67193;SDS011;54121;53.508;49.422;2022-12-24T12:43:55;9.23;;;8.02;;
67193;SDS011;54121;53.508;49.422;2022-12-24T12:58:36;15.25;;;10.75;;
67193;SDS011;54121;53.508;49.422;2022-12-24T13:01:44;17.35;;;15.48;;
67193;SDS011;54121;53.508;49.422;2022-12-24T13:10:04;17.25;;;13.32;;
67193;SDS011;54121;53.508;49.422;2022-12-24T13:13:00;20.58;;;16.45;;
67193;SDS011;54121;53.508;49.422;2022-12-24T13:16:03;19.58;;;14.55;;
67193;SDS011;54121;53.508;49.422;2022-12-24T13:21:16;27.25;;;17.05;;
67193;SDS011;54121;53.508;49.422;2022-12-24T13:23:46;17.73;;;12.75;;
67193;SDS011;54121;53.508;49.422;2022-12-24T13:26:14;18.88;;;12.90;;
67193;SDS011;54121;53.508;49.422;2022-12-24T13:28:42;22.02;;;17.13;;
67193;SDS011;54121;53.508;49.422;2022-12-24T13:33:45;22.45;;;15.48;;
67193;SDS011;54121;53.508;49.422;2022-12-24T13:36:14;18.73;;;12.40;;
67193;SDS011;54121;53.508;49.422;2022-12-24T13:38:54;22.08;;;16.60;;
67193;SDS011;54121;53.508;49.422;2022-12-24T13:44:02;19.65;;;12.82;;
67193;SDS011;54121;53.508;49.422;2022-12-24T13:49:40;17.05;;;10.18;;
67193;SDS011;54121;53.508;49.422;2022-12-24T13:54:59;13.85;;;9.30;;
67193;SDS011;54121;53.508;49.422;2022-12-24T14:05:36;20.02;;;11.48;;
67193;SDS011;54121;53.508;49.422;2022-12-24T14:08:11;20.15;;;16.60;;
67193;SDS011;54121;53.508;49.422;2022-12-24T14:16:12;20.90;;;16.80;;
67193;SDS011;54121;53.508;49.422;2022-12-24T14:18:49;18.92;;;10.98;;
67193;SDS011;54121;53.508;49.422;2022-12-24T14:21:16;15.10;;;9.68;;
67193;SDS011;54121;53.508;49.422;2022-12-24T14:23:55;18.75;;;13.57;;
67193;SDS011;54121;53.508;49.422;2022-12-24T14:26:28;15.35;;;8.45;;
67193;SDS011;54121;53.508;49.422;2022-12-24T14:29:21;19.38;;;11.63;;
67193;SDS011;54121;53.508;49.422;2022-12-24T14:31:54;14.35;;;9.82;;
67193;SDS011;54121;53.508;49.422;2022-12-24T14:34:23;15.97;;;9.27;;
67193;SDS011;54121;53.508;49.422;2022-12-24T14:36:51;14.65;;;8.70;;
67193;SDS011;54121;53.508;49.422;2022-12-24T14:39:21;17.47;;;10.40;;
67193;SDS011;54121;53.508;49.422;2022-12-24T14:50:54;18.10;;;8.68;;
67193;SDS011;54121;53.508;49.422;2022-12-24T14:56:14;15.38;;;10.60;;
67193;SDS011;54121;53.508;49.422;2022-12-24T14:58:43;15.90;;;11.00;;
67193;SDS011;54121;53.508;49.422;2022-12-24T15:01:20;16.67;;;12.57;;
67193;SDS011;54121;53.508;49.422;2022-12-24T15:04:13;14.00;;;11.05;;
67193;SDS011;54121;53.508;49.422;2022-12-24T15:06:45;16.40;;;11.68;;
67193;SDS011;54121;53.508;49.422;2022-12-24T15:09:22;16.13;;;11.63;;
67193;SDS011;54121;53.508;49.422;2022-12-24T15:11:51;12.48;;;7.85;;
67193;SDS011;54121;53.508;49.422;2022-12-24T15:14:20;10.85;;;8.20;;
67193;SDS011;54121;53.508;49.422;2022-12-24T15:16:56;11.77;;;7.90;;
67193;SDS011;54121;53.508;49.422;2022-12-24T15:19:29;14.25;;;9.27;;
67193;SDS011;54121;53.508;49.422;2022-12-24T15:22:21;10.47;;;6.23;;
67193;SDS011;54121;53.508;49.422;2022-12-24T15:24:53;14.80;;;8.02;;
67193;SDS011;54121;53.508;49.422;2022-12-24T15:27:23;12.38;;;8.40;;
67193;SDS011;54121;53.508;49.422;2022-12-24T15:29:52;9.00;;;6.10;;
67193;SDS011;54121;53.508;49.422;2022-12-24T15:32:22;7.43;;;5.72;;
67193;SDS011;54121;53.508;49.422;2022-12-24T15:34:50;7.88;;;4.95;;
67193;SDS011;54121;53.508;49.422;2022-12-24T15:39:58;12.18;;;8.70;;
67193;SDS011;54121;53.508;49.422;2022-12-24T15:42:31;12.18;;;7.90;;
67193;SDS011;54121;53.508;49.422;2022-12-24T15:45:04;7.82;;;5.38;;
67193;SDS011;54121;53.508;49.422;2022-12-24T15:47:43;8.95;;;6.13;;
67193;SDS011;54121;53.508;49.422;2022-12-24T15:50:21;8.98;;;5.60;;
67193;SDS011;54121;53.508;49.422;2022-12-24T15:52:55;8.55;;;5.65;;
67193;SDS011;54121;53.508;49.422;2022-12-24T15:55:46;10.02;;;4.97;;
67193;SDS011;54121;53.508;49.422;2022-12-24T15:58:31;4.22;;;1.98;;
67193;SDS011;54121;53.508;49.422;2022-12-24T16:01:05;9.77;;;6.55;;
67193;SDS011;54121;53.508;49.422;2022-12-24T16:06:20;9.43;;;5.63;;
67193;SDS011;54121;53.508;49.422;2022-12-24T16:08:48;7.60;;;5.03;;
67193;SDS011;54121;53.508;49.422;2022-12-24T16:11:20;9.38;;;6.20;;
67193;SDS011;54121;53.508;49.422;2022-12-24T16:16:17;6.57;;;4.85;;
67193;SDS011;54121;53.508;49.422;2022-12-24T16:18:56;7.05;;;4.35;;
67193;SDS011;54121;53.508;49.422;2022-12-24T16:21:25;8.73;;;3.70;;
67193;SDS011;54121;53.508;49.422;2022-12-24T16:24:11;5.28;;;3.28;;
67193;SDS011;54121;53.508;49.422;2022-12-24T16:26:45;9.90;;;5.85;;
67193;SDS011;54121;53.508;49.422;2022-12-24T16:29:12;3.60;;;2.60;;
67193;SDS011;54121;53.508;49.422;2022-12-24T16:34:11;8.07;;;4.77;;
67193;SDS011;54121;53.508;49.422;2022-12-24T16:36:43;8.35;;;4.28;;
67193;SDS011;54121;53.508;49.422;2022-12-24T16:39:21;5.45;;;3.83;;
67193;SDS011;54121;53.508;49.422;2022-12-24T16:41:56;3.78;;;2.60;;
67193;SDS011;54121;53.508;49.422;2022-12-24T16:44:43;5.82;;;4.07;;
67193;SDS011;54121;53.508;49.422;2022-12-24T16:47:14;6.68;;;5.00;;
67193;SDS011;54121;53.508;49.422;2022-12-24T16:49:51;5.95;;;4.70;;
67193;SDS011;54121;53.508;49.422;2022-12-24T16:52:19;5.40;;;3.55;;
67193;SDS011;54121;53.508;49.422;2022-12-24T16:54:48;6.55;;;4.03;;
67193;SDS011;54121;53.508;49.422;2022-12-24T16:57:14;6.80;;;3.95;;